Portada
METAR-TAF:

METAR-TAF

Aeroports :

Aeroport d'Alacant-Elx

Alacant, Espanya

latitud: 38-17N, longitud: 000-33W, altitud: 43 m

Observació

L'informe es va fer fa 20 minuts, a les 17:00 UTC
Vent 7 kt del Est, variant entre Est/Nord-Est i Sud/Sud-Est
Temperatura 25°C
Humitat 61%
Pressió 1019 hPa
Visibilitat 10 km o més
sense núvols per sota de 1500 mi sense presència de cumulonimbus.

METAR: LEAL 181700Z 10007KT 060V160 CAVOK 25/17 Q1019 NOSIG

Hora: 19:20 (17:20 UTC)

Pronòstic

L'informe es va fer fa 6 hores i 20 minuts, a les 11:00 UTC
Pronòstic vàlid del 18 a les 12 UTC al 19 a les 12 UTC
Vent 10 kt del Est
Visibilitat 10 km o més
Escasses núvols a una alçada de 2000 ft
Evolucionant progressivament
l' 18 a les 19 UTC al 18 a les 22 UTC
Vent 5 kt del Nord/Nord-Est
Evolucionant progressivament
l' 19 a les 08 UTC al 19 a les 10 UTC
Vent 10 kt del Est

TAF: LEAL 181100Z 1812/1912 09010KT 9999 FEW020 TX28/1812Z TN19/1906Z BECMG 1819/1822 02005KT BECMG 1908/1910 09010KT

Observacions i pronòstics meteorològics de més de 4000 aeroports (METAR i TAF).

Les estacions disponibles són els punts grocs i vermells al mapa.

Posi el ratolí al punt desitjat per veure el nom de l'estació.

Feu clic per veure les observacions i els pronòstics meteorològics.

Per canviar el mapa: feu clic els botons verds amb una creu de color negre per apropar; al botó verd amb un guió per allunyar la imatge; o en les fletxes verdes per a mapes adjacents.


METAR-TAF: